Time;durP1;ratioP1;P1;durP2;ratioP2;P2;SDS_P1;SDS_P2;PMS_P1;PMS_P2;Temp;Humidity;BMP_temperature;BMP_pressure;BME280_temperature;BME280_humidity;BME280_pressure;Samples;Min_cycle;Max_cycle;Signal;HPM_P1;HPM_P2
2023/01/05 00:01:39;;;;;;;;;;;11.80;80.60;;;;;;5034577;28;19917;-80
2023/01/05 00:04:05;;;;;;;;;;;11.80;80.80;;;;;;5015489;28;19917;-79
2023/01/05 00:06:30;;;;;;;;;;;11.80;81.10;;;;;;5027983;28;20288;-80
2023/01/05 00:08:57;;;;;;;;;;;11.70;81.20;;;;;;5028922;28;20340;-78
2023/01/05 00:22:33;;;;;;;;;;;11.60;81.90;;;;;;5025823;28;20330;-78
2023/01/05 00:25:04;;;;;;;;;;;11.60;82.00;;;;;;5005699;28;19988;-78
2023/01/05 00:27:29;;;;;;;;;;;11.60;81.50;;;;;;5022217;28;19965;-78
2023/01/05 00:29:55;;;;;;;;;;;11.60;81.50;;;;;;5031654;28;19967;-78
2023/01/05 00:32:21;;;;;;;;;;;11.60;81.60;;;;;;5024076;28;20988;-79
2023/01/05 00:34:46;;;;;;;;;;;11.60;80.90;;;;;;5028586;28;20384;-79
2023/01/05 00:37:12;;;;;;;;;;;11.60;81.40;;;;;;5020471;28;19920;-80
2023/01/05 00:39:37;;;;;;;;;;;11.60;81.00;;;;;;5006436;28;19917;-80
2023/01/05 00:42:03;;;;;;;;;;;11.60;81.30;;;;;;5027187;28;19971;-80
2023/01/05 00:44:28;;;;;;;;;;;11.60;80.70;;;;;;5028587;28;19917;-79
2023/01/05 00:46:54;;;;;;;;;;;11.60;80.90;;;;;;5015976;28;20443;-81
2023/01/05 00:49:19;;;;;;;;;;;11.50;81.10;;;;;;5031670;28;19920;-80
2023/01/05 00:51:45;;;;;;;;;;;11.50;81.20;;;;;;5029585;28;19917;-80
2023/01/05 00:54:10;;;;;;;;;;;11.60;81.20;;;;;;5031592;28;19947;-79
2023/01/05 00:56:36;;;;;;;;;;;11.50;80.80;;;;;;5037465;28;19921;-79
2023/01/05 00:59:01;;;;;;;;;;;11.50;80.70;;;;;;5030864;28;19920;-79
2023/01/05 01:01:27;;;;;;;;;;;11.50;80.60;;;;;;5009706;28;19948;-79
2023/01/05 01:03:52;;;;;;;;;;;11.50;81.00;;;;;;5033996;28;19948;-79
2023/01/05 01:06:18;;;;;;;;;;;11.50;81.30;;;;;;5026299;28;20649;-79
2023/01/05 01:08:44;;;;;;;;;;;11.40;81.50;;;;;;5029254;28;19921;-79
2023/01/05 01:11:09;;;;;;;;;;;11.40;81.80;;;;;;5011961;28;19920;-79
2023/01/05 01:13:37;;;;;;;;;;;11.50;81.70;;;;;;5025226;28;19923;-79
2023/01/05 01:16:07;;;;;;;;;;;11.30;81.70;;;;;;5006342;28;19936;-79
2023/01/05 01:18:32;;;;;;;;;;;11.30;81.30;;;;;;5025661;28;19921;-79
2023/01/05 01:20:58;;;;;;;;;;;11.30;81.30;;;;;;5023453;28;19964;-79
2023/01/05 01:23:23;;;;;;;;;;;11.30;81.40;;;;;;5019931;28;20281;-79
2023/01/05 01:25:49;;;;;;;;;;;11.30;81.30;;;;;;5009833;28;20011;-78
2023/01/05 01:28:15;;;;;;;;;;;11.20;82.00;;;;;;5030045;28;20365;-78
2023/01/05 01:30:40;;;;;;;;;;;11.20;81.40;;;;;;5030516;28;19975;-78
2023/01/05 01:33:06;;;;;;;;;;;11.20;81.50;;;;;;5029608;28;19923;-79
2023/01/05 01:35:31;;;;;;;;;;;11.20;81.70;;;;;;5029560;28;19940;-77
2023/01/05 01:37:56;;;;;;;;;;;11.20;81.20;;;;;;5032154;28;19959;-79
2023/01/05 01:40:22;;;;;;;;;;;11.20;81.70;;;;;;5029478;28;19917;-79
2023/01/05 01:42:47;;;;;;;;;;;11.30;81.20;;;;;;5053339;22;19936;-85
2023/01/05 01:45:17;;;;;;;;;;;11.30;81.40;;;;;;5012955;28;19914;-86
2023/01/05 01:47:53;;;;;;;;;;;11.30;80.70;;;;;;5031889;28;20004;-85
2023/01/05 01:50:23;;;;;;;;;;;11.40;80.60;;;;;;5016867;28;19979;-85
2023/01/05 01:52:52;;;;;;;;;;;11.30;81.10;;;;;;5019735;28;20001;-84
2023/01/05 01:55:18;;;;;;;;;;;11.30;81.50;;;;;;5007018;28;20394;-84
2023/01/05 01:57:44;;;;;;;;;;;11.30;81.40;;;;;;5033753;28;19909;-84
2023/01/05 02:00:11;;;;;;;;;;;11.30;81.30;;;;;;5014395;28;19913;-84
2023/01/05 02:02:37;;;;;;;;;;;11.40;81.60;;;;;;5032104;28;19932;-85
2023/01/05 02:05:05;;;;;;;;;;;11.30;81.20;;;;;;5036594;28;19913;-85
2023/01/05 02:07:32;;;;;;;;;;;11.40;81.30;;;;;;5013239;28;19921;-84
2023/01/05 02:09:58;;;;;;;;;;;11.30;81.70;;;;;;5032063;28;19913;-86
2023/01/05 02:12:42;;;;;;;;;;;11.40;81.50;;;;;;5012113;28;19964;-83
2023/01/05 02:15:25;;;;;;;;;;;11.30;81.60;;;;;;5017421;28;19953;-83
2023/01/05 02:17:59;;;;;;;;;;;11.30;81.80;;;;;;5026016;28;20758;-84
2023/01/05 02:20:25;;;;;;;;;;;11.30;82.00;;;;;;5031392;28;19969;-85
2023/01/05 02:23:25;;;;;;;;;;;11.30;82.30;;;;;;5016166;28;19913;-85
2023/01/05 02:25:54;;;;;;;;;;;11.30;81.90;;;;;;4916123;29;19920;-85
2023/01/05 02:28:41;;;;;;;;;;;11.40;82.00;;;;;;5010740;28;19919;-84
2023/01/05 02:31:17;;;;;;;;;;;11.30;81.80;;;;;;5033845;28;19913;-85
2023/01/05 02:34:03;;;;;;;;;;;11.30;81.90;;;;;;5025927;28;19918;-84
2023/01/05 02:36:34;;;;;;;;;;;11.20;81.90;;;;;;5007814;28;19917;-84
2023/01/05 02:39:04;;;;;;;;;;;11.20;81.80;;;;;;5010298;28;19987;-85
2023/01/05 02:41:40;;;;;;;;;;;11.20;81.90;;;;;;5009348;28;19921;-85
2023/01/05 02:44:07;;;;;;;;;;;11.10;82.00;;;;;;5027547;28;19917;-84
2023/01/05 02:46:32;;;;;;;;;;;11.20;81.70;;;;;;5024527;28;19968;-84
2023/01/05 02:48:59;;;;;;;;;;;11.30;81.60;;;;;;5007103;28;19949;-85
2023/01/05 02:51:28;;;;;;;;;;;11.20;81.90;;;;;;5025891;28;19921;-85
2023/01/05 02:53:57;;;;;;;;;;;11.20;81.30;;;;;;5021866;28;19914;-84
2023/01/05 02:56:25;;;;;;;;;;;11.10;81.50;;;;;;5024760;28;19913;-85
2023/01/05 02:58:53;;;;;;;;;;;11.10;82.20;;;;;;5010820;28;19917;-83
2023/01/05 03:01:28;;;;;;;;;;;11.10;81.70;;;;;;5019007;28;19917;-85
2023/01/05 03:04:08;;;;;;;;;;;11.10;81.90;;;;;;5025834;28;19921;-84
2023/01/05 03:06:47;;;;;;;;;;;11.10;81.70;;;;;;5018018;28;19917;-85
2023/01/05 03:09:14;;;;;;;;;;;11.10;81.70;;;;;;5017020;28;20087;-84
2023/01/05 03:14:49;;;;;;;;;;;11.10;81.90;;;;;;5035669;28;19955;-84
2023/01/05 03:17:18;;;;;;;;;;;11.10;81.90;;;;;;5010909;28;20342;-84
2023/01/05 03:19:44;;;;;;;;;;;11.10;81.80;;;;;;5030150;28;19917;-83
2023/01/05 03:36:40;;;;;;;;;;;11.00;81.60;;;;;;5028634;28;19948;-85
2023/01/05 03:39:06;;;;;;;;;;;11.10;81.90;;;;;;5026562;28;19913;-84
2023/01/05 03:41:32;;;;;;;;;;;11.00;83.00;;;;;;5015668;28;19988;-84
2023/01/05 03:43:57;;;;;;;;;;;10.90;83.40;;;;;;5017907;28;19967;-83
2023/01/05 03:46:23;;;;;;;;;;;10.80;83.90;;;;;;5012165;28;20392;-84
2023/01/05 03:48:49;;;;;;;;;;;10.70;84.10;;;;;;5030373;28;19982;-85
2023/01/05 03:51:15;;;;;;;;;;;10.80;84.10;;;;;;5011825;28;20290;-84
2023/01/05 03:53:40;;;;;;;;;;;10.70;84.30;;;;;;5026894;28;19957;-84
2023/01/05 03:56:06;;;;;;;;;;;10.60;84.30;;;;;;5024956;28;19913;-84
2023/01/05 03:58:31;;;;;;;;;;;10.60;84.10;;;;;;5010769;28;19917;-84
2023/01/05 04:00:57;;;;;;;;;;;10.70;84.20;;;;;;5013778;28;19924;-84
2023/01/05 04:03:24;;;;;;;;;;;10.80;83.70;;;;;;5011887;28;22856;-83
2023/01/05 04:05:49;;;;;;;;;;;10.80;84.00;;;;;;5003493;28;19917;-85
2023/01/05 04:08:15;;;;;;;;;;;10.80;84.70;;;;;;5004852;28;19972;-84
2023/01/05 04:10:41;;;;;;;;;;;10.70;85.30;;;;;;5010298;28;19920;-85
2023/01/05 04:13:06;;;;;;;;;;;10.70;85.60;;;;;;5026573;28;19967;-84
2023/01/05 04:15:32;;;;;;;;;;;10.70;85.90;;;;;;5023028;28;20380;-84
2023/01/05 04:17:57;;;;;;;;;;;10.60;85.30;;;;;;5026539;28;19967;-83
2023/01/05 04:20:23;;;;;;;;;;;10.60;85.80;;;;;;5027242;28;20003;-84
2023/01/05 04:22:48;;;;;;;;;;;10.60;85.90;;;;;;5008968;28;20000;-84
2023/01/05 04:25:13;;;;;;;;;;;10.50;86.30;;;;;;5020615;28;19913;-82
2023/01/05 04:27:39;;;;;;;;;;;10.60;85.70;;;;;;5007885;28;19913;-85
2023/01/05 04:30:05;;;;;;;;;;;10.60;86.30;;;;;;5005157;28;19913;-85
2023/01/05 04:32:30;;;;;;;;;;;10.60;86.40;;;;;;5007767;28;19917;-85
2023/01/05 04:34:55;;;;;;;;;;;10.50;86.40;;;;;;5021334;28;19936;-85
2023/01/05 04:37:22;;;;;;;;;;;10.60;86.30;;;;;;5011540;28;19917;-86
2023/01/05 04:39:47;;;;;;;;;;;10.50;86.50;;;;;;5009904;28;19928;-85
2023/01/05 04:42:12;;;;;;;;;;;10.50;86.40;;;;;;5006843;28;19925;-85
2023/01/05 04:44:38;;;;;;;;;;;10.50;86.50;;;;;;5024798;28;20047;-85
2023/01/05 04:47:03;;;;;;;;;;;10.50;87.00;;;;;;5020920;28;20012;-85
2023/01/05 04:49:29;;;;;;;;;;;10.50;87.20;;;;;;5027633;28;19917;-86
2023/01/05 04:51:54;;;;;;;;;;;10.50;87.30;;;;;;5016038;28;20371;-88
2023/01/05 04:54:20;;;;;;;;;;;10.40;87.10;;;;;;5006639;28;20298;-87
2023/01/05 04:56:45;;;;;;;;;;;10.40;87.20;;;;;;5027253;28;19913;-85
2023/01/05 04:59:10;;;;;;;;;;;10.40;87.20;;;;;;5010380;28;19925;-86
2023/01/05 05:01:36;;;;;;;;;;;10.50;87.20;;;;;;5036845;28;19931;-86
2023/01/05 05:04:01;;;;;;;;;;;10.40;87.10;;;;;;5012366;28;20015;-86
2023/01/05 05:06:27;;;;;;;;;;;10.40;87.40;;;;;;5014500;28;19913;-86
2023/01/05 05:08:52;;;;;;;;;;;10.40;87.30;;;;;;5005276;28;20387;-85
2023/01/05 05:11:18;;;;;;;;;;;10.50;86.90;;;;;;5030191;28;20327;-87
2023/01/05 05:13:43;;;;;;;;;;;10.50;87.10;;;;;;5020560;28;19917;-86
2023/01/05 05:16:08;;;;;;;;;;;10.50;86.40;;;;;;5009051;28;19925;-86
2023/01/05 05:18:34;;;;;;;;;;;10.50;86.60;;;;;;5006469;28;19921;-87
2023/01/05 05:20:59;;;;;;;;;;;10.50;86.70;;;;;;5021845;28;19943;-86
2023/01/05 05:23:25;;;;;;;;;;;10.40;86.90;;;;;;5006856;28;19921;-86
2023/01/05 05:25:51;;;;;;;;;;;10.50;86.90;;;;;;5010113;28;19913;-86
2023/01/05 05:28:17;;;;;;;;;;;10.50;86.80;;;;;;5015589;28;20421;-87
2023/01/05 05:30:42;;;;;;;;;;;10.50;86.70;;;;;;5003395;28;19936;-86
2023/01/05 05:33:08;;;;;;;;;;;10.50;86.70;;;;;;5024499;28;19953;-87
2023/01/05 05:35:33;;;;;;;;;;;10.60;86.50;;;;;;5024164;28;19913;-86
2023/01/05 05:38:00;;;;;;;;;;;10.60;86.20;;;;;;5021514;28;20011;-86
2023/01/05 05:40:25;;;;;;;;;;;10.60;86.90;;;;;;5025264;28;19925;-87
2023/01/05 05:42:51;;;;;;;;;;;10.60;87.20;;;;;;5009689;28;19939;-86
2023/01/05 05:45:16;;;;;;;;;;;10.60;87.30;;;;;;5022600;28;20351;-85
2023/01/05 05:47:42;;;;;;;;;;;10.50;87.90;;;;;;5009780;28;20290;-86
2023/01/05 05:50:08;;;;;;;;;;;10.40;88.10;;;;;;5001273;28;19928;-85
2023/01/05 05:52:33;;;;;;;;;;;10.40;88.40;;;;;;5021810;28;19913;-86
2023/01/05 05:54:59;;;;;;;;;;;10.40;88.60;;;;;;5024964;28;19913;-85
2023/01/05 05:57:24;;;;;;;;;;;10.40;88.90;;;;;;5027548;28;19920;-85
2023/01/05 05:59:49;;;;;;;;;;;10.30;88.80;;;;;;5008685;28;19997;-86
2023/01/05 06:02:16;;;;;;;;;;;10.30;89.10;;;;;;5007973;28;19925;-86
2023/01/05 06:04:42;;;;;;;;;;;10.30;89.20;;;;;;5002655;28;19913;-85
2023/01/05 06:07:07;;;;;;;;;;;10.30;89.30;;;;;;5029253;28;19920;-85
2023/01/05 06:09:33;;;;;;;;;;;10.30;89.50;;;;;;5045745;28;19920;-83
2023/01/05 06:11:58;;;;;;;;;;;10.20;89.70;;;;;;5025883;28;20003;-85
2023/01/05 06:14:24;;;;;;;;;;;10.20;89.60;;;;;;5025751;28;20035;-84
2023/01/05 06:16:49;;;;;;;;;;;10.20;89.80;;;;;;5036439;28;19909;-85
2023/01/05 06:19:15;;;;;;;;;;;10.20;89.90;;;;;;5028945;28;19914;-85
2023/01/05 06:21:40;;;;;;;;;;;10.20;90.10;;;;;;5019871;28;20386;-85
2023/01/05 06:24:06;;;;;;;;;;;10.20;90.20;;;;;;5047189;28;19917;-86
2023/01/05 06:26:31;;;;;;;;;;;10.20;90.20;;;;;;5014129;28;19917;-86
2023/01/05 06:28:56;;;;;;;;;;;10.20;90.20;;;;;;5034833;28;19971;-86
2023/01/05 06:31:22;;;;;;;;;;;10.20;90.30;;;;;;5008045;28;19914;-87
2023/01/05 06:33:47;;;;;;;;;;;10.20;90.30;;;;;;5015423;28;19917;-86
2023/01/05 06:36:13;;;;;;;;;;;10.20;89.90;;;;;;5017634;28;20007;-85
2023/01/05 06:38:38;;;;;;;;;;;10.20;90.10;;;;;;5037854;28;20268;-85
2023/01/05 06:41:04;;;;;;;;;;;10.20;90.20;;;;;;5015873;28;19963;-86
2023/01/05 06:43:29;;;;;;;;;;;10.10;90.30;;;;;;5016178;28;19948;-86
2023/01/05 06:45:55;;;;;;;;;;;10.10;90.60;;;;;;5027691;28;19917;-86
2023/01/05 06:48:20;;;;;;;;;;;10.10;90.40;;;;;;5032606;28;19956;-87
2023/01/05 06:50:46;;;;;;;;;;;10.10;90.70;;;;;;5003311;28;19928;-86
2023/01/05 06:53:11;;;;;;;;;;;10.10;90.50;;;;;;5009821;28;20027;-86
2023/01/05 06:55:39;;;;;;;;;;;10.10;90.50;;;;;;5020847;28;20280;-88
2023/01/05 06:58:04;;;;;;;;;;;10.10;90.60;;;;;;5013375;28;19961;-87
2023/01/05 07:00:37;;;;;;;;;;;10.10;90.70;;;;;;5006947;28;19952;-88
2023/01/05 07:03:03;;;;;;;;;;;10.10;90.70;;;;;;5037753;28;19968;-86
2023/01/05 07:05:28;;;;;;;;;;;10.10;90.60;;;;;;5022829;28;19913;-85
2023/01/05 07:07:53;;;;;;;;;;;10.10;90.60;;;;;;5013930;28;19913;-85
2023/01/05 07:10:19;;;;;;;;;;;10.20;90.30;;;;;;5006199;28;19913;-86
2023/01/05 07:12:47;;;;;;;;;;;10.10;90.30;;;;;;5030518;28;19917;-86
2023/01/05 07:15:13;;;;;;;;;;;10.00;90.50;;;;;;5016469;28;19983;-86
2023/01/05 07:17:38;;;;;;;;;;;10.10;90.80;;;;;;5030447;28;20000;-85
2023/01/05 07:20:04;;;;;;;;;;;10.10;90.50;;;;;;5014702;28;19913;-86
2023/01/05 07:22:29;;;;;;;;;;;10.10;90.70;;;;;;5020364;28;20506;-86
2023/01/05 07:24:58;;;;;;;;;;;10.00;90.90;;;;;;5021986;28;20383;-84
2023/01/05 07:27:24;;;;;;;;;;;10.10;91.10;;;;;;5029425;28;19947;-84
2023/01/05 07:29:49;;;;;;;;;;;10.00;91.20;;;;;;5022160;28;20596;-84
2023/01/05 07:32:15;;;;;;;;;;;10.10;91.10;;;;;;5007075;28;19917;-84
2023/01/05 07:34:40;;;;;;;;;;;10.10;91.10;;;;;;5033307;28;19956;-85
2023/01/05 07:37:06;;;;;;;;;;;10.10;91.00;;;;;;5013312;28;19917;-83
2023/01/05 07:39:31;;;;;;;;;;;10.00;91.20;;;;;;5008536;28;19965;-84
2023/01/05 07:41:57;;;;;;;;;;;10.10;91.20;;;;;;5012191;28;19917;-85
2023/01/05 07:44:22;;;;;;;;;;;10.10;91.10;;;;;;5014491;28;20365;-84
2023/01/05 07:46:48;;;;;;;;;;;10.20;90.90;;;;;;5016787;28;20442;-84
2023/01/05 07:49:14;;;;;;;;;;;10.10;90.80;;;;;;5040940;28;19929;-84
2023/01/05 07:51:39;;;;;;;;;;;10.20;90.70;;;;;;5025859;28;20374;-83
2023/01/05 07:54:05;;;;;;;;;;;10.10;90.80;;;;;;5018421;28;19945;-84
2023/01/05 07:56:30;;;;;;;;;;;10.10;91.00;;;;;;5037517;23;20309;-89
2023/01/05 07:58:56;;;;;;;;;;;10.10;91.00;;;;;;5050150;28;19916;-87
2023/01/05 08:01:21;;;;;;;;;;;10.10;90.90;;;;;;5034705;28;19921;-89
2023/01/05 08:03:47;;;;;;;;;;;10.20;90.90;;;;;;5040061;28;19987;-87
2023/01/05 08:06:13;;;;;;;;;;;10.10;90.70;;;;;;5046744;28;19912;-87
2023/01/05 08:08:39;;;;;;;;;;;10.10;90.90;;;;;;5056639;28;19913;-90
2023/01/05 08:11:06;;;;;;;;;;;10.10;91.00;;;;;;5060518;28;19923;-86
2023/01/05 08:16:16;;;;;;;;;;;10.20;90.30;;;;;;5075083;28;20015;-88
2023/01/05 08:18:41;;;;;;;;;;;10.10;89.80;;;;;;5083363;28;19897;-89
2023/01/05 08:21:08;;;;;;;;;;;10.20;90.20;;;;;;5066658;28;19931;-88
2023/01/05 08:23:34;;;;;;;;;;;10.20;90.10;;;;;;5057474;28;19913;-87
2023/01/05 08:26:10;;;;;;;;;;;10.20;90.00;;;;;;5067272;28;19979;-87
2023/01/05 08:28:36;;;;;;;;;;;10.20;89.70;;;;;;5062685;28;19912;-88
2023/01/05 08:31:06;;;;;;;;;;;10.20;89.90;;;;;;5060174;28;19920;-87
2023/01/05 08:33:32;;;;;;;;;;;10.30;90.00;;;;;;5076628;28;19900;-87
2023/01/05 08:35:58;;;;;;;;;;;10.20;90.30;;;;;;5060945;28;19924;-87
2023/01/05 08:38:23;;;;;;;;;;;10.30;90.30;;;;;;5055606;28;19966;-87
2023/01/05 08:40:49;;;;;;;;;;;10.20;90.30;;;;;;5081914;28;19956;-87
2023/01/05 08:43:15;;;;;;;;;;;10.20;90.50;;;;;;5061949;28;19909;-86
2023/01/05 08:45:40;;;;;;;;;;;10.30;90.30;;;;;;5048864;28;20399;-86
2023/01/05 08:48:06;;;;;;;;;;;10.30;90.30;;;;;;5062471;28;19920;-89
2023/01/05 08:50:31;;;;;;;;;;;10.40;90.10;;;;;;5055367;28;19924;-89
2023/01/05 08:52:57;;;;;;;;;;;10.40;90.00;;;;;;5101093;28;19916;-90
2023/01/05 08:55:22;;;;;;;;;;;10.40;90.20;;;;;;5071316;28;19920;-89
2023/01/05 08:57:48;;;;;;;;;;;10.40;90.00;;;;;;5066011;28;19919;-90
2023/01/05 09:00:16;;;;;;;;;;;10.40;90.20;;;;;;5082931;28;19912;-90
2023/01/05 09:02:48;;;;;;;;;;;10.40;90.10;;;;;;5053515;28;20308;-90
2023/01/05 09:05:13;;;;;;;;;;;10.40;90.10;;;;;;5042661;28;19923;-89
2023/01/05 09:07:39;;;;;;;;;;;10.40;90.00;;;;;;5042952;28;19994;-90
2023/01/05 09:10:06;;;;;;;;;;;10.40;90.10;;;;;;5064861;28;19912;-90
2023/01/05 09:12:33;;;;;;;;;;;10.50;89.90;;;;;;5060446;28;20329;-90
2023/01/05 09:14:58;;;;;;;;;;;10.50;89.70;;;;;;5056248;28;19920;-90
2023/01/05 09:17:24;;;;;;;;;;;10.50;89.60;;;;;;5093764;28;19938;-91
2023/01/05 09:19:50;;;;;;;;;;;10.60;89.60;;;;;;5055629;28;19913;-91
2023/01/05 09:22:15;;;;;;;;;;;10.60;89.40;;;;;;5052975;28;20004;-88
2023/01/05 09:24:41;;;;;;;;;;;10.60;88.90;;;;;;5081523;28;19893;-90
2023/01/05 09:27:06;;;;;;;;;;;10.70;88.80;;;;;;5109805;28;19913;-92
2023/01/05 09:29:32;;;;;;;;;;;10.70;88.80;;;;;;5074640;28;19908;-88
2023/01/05 09:31:57;;;;;;;;;;;10.80;88.70;;;;;;5100942;28;19920;-91
2023/01/05 09:34:23;;;;;;;;;;;10.80;88.60;;;;;;5061828;28;20388;-92
2023/01/05 09:36:48;;;;;;;;;;;10.80;88.70;;;;;;5065008;28;19912;-91
2023/01/05 09:39:14;;;;;;;;;;;10.80;88.70;;;;;;5059354;28;19934;-89
2023/01/05 09:42:06;;;;;;;;;;;10.80;88.50;;;;;;5070603;28;19931;-85
2023/01/05 09:44:36;;;;;;;;;;;10.80;88.40;;;;;;5063847;28;19916;-86
2023/01/05 09:47:17;;;;;;;;;;;10.80;88.40;;;;;;5062675;28;19924;-90
2023/01/05 09:49:43;;;;;;;;;;;10.80;88.20;;;;;;5091090;28;20641;-90
2023/01/05 09:52:09;;;;;;;;;;;10.80;88.60;;;;;;5054467;28;20011;-89
2023/01/05 09:54:36;;;;;;;;;;;10.80;88.60;;;;;;5061813;28;20428;-90
2023/01/05 09:57:03;;;;;;;;;;;10.80;88.30;;;;;;5057767;28;19916;-89
2023/01/05 09:59:30;;;;;;;;;;;10.90;87.90;;;;;;5088997;28;19912;-90
2023/01/05 10:01:59;;;;;;;;;;;10.90;87.80;;;;;;5071047;28;19934;-88
2023/01/05 10:04:26;;;;;;;;;;;10.80;88.00;;;;;;5071464;28;19917;-87
2023/01/05 10:07:12;;;;;;;;;;;11.00;87.60;;;;;;5071372;28;19956;-87
2023/01/05 10:09:38;;;;;;;;;;;10.90;87.70;;;;;;5037202;28;20285;-86
2023/01/05 10:14:57;;;;;;;;;;;10.90;88.50;;;;;;5069237;28;20762;-87
2023/01/05 10:17:23;;;;;;;;;;;10.90;87.80;;;;;;5071141;28;19919;-87
2023/01/05 10:19:49;;;;;;;;;;;10.90;87.90;;;;;;5077969;28;19978;-87
2023/01/05 10:22:21;;;;;;;;;;;10.90;87.70;;;;;;5073509;28;19928;-87
2023/01/05 10:24:57;;;;;;;;;;;10.90;87.80;;;;;;5068010;28;19912;-89
2023/01/05 10:27:29;;;;;;;;;;;10.90;87.90;;;;;;5057796;28;20006;-82
2023/01/05 10:30:12;;;;;;;;;;;10.90;87.60;;;;;;5071077;28;19917;-84
2023/01/05 10:32:37;;;;;;;;;;;11.00;87.70;;;;;;5049282;28;20373;-84
2023/01/05 10:35:06;;;;;;;;;;;11.10;86.80;;;;;;5059522;28;20020;-83
2023/01/05 10:37:44;;;;;;;;;;;11.00;87.10;;;;;;5066447;28;19917;-85
2023/01/05 10:40:28;;;;;;;;;;;11.00;86.90;;;;;;5054216;28;19912;-85
2023/01/05 10:43:06;;;;;;;;;;;10.90;87.20;;;;;;5079116;28;19932;-87
2023/01/05 10:45:35;;;;;;;;;;;10.90;87.40;;;;;;5080848;28;20416;-87
2023/01/05 10:48:03;;;;;;;;;;;10.80;87.50;;;;;;5074407;28;19974;-87
2023/01/05 10:50:42;;;;;;;;;;;11.00;87.30;;;;;;5054489;28;19912;-86
2023/01/05 10:53:08;;;;;;;;;;;11.00;87.10;;;;;;5076520;28;20002;-86
2023/01/05 10:55:37;;;;;;;;;;;11.10;87.40;;;;;;5081633;28;19920;-86
2023/01/05 10:58:19;;;;;;;;;;;11.10;86.90;;;;;;5084976;28;20197;-85
2023/01/05 11:00:44;;;;;;;;;;;11.10;86.80;;;;;;5075159;28;19917;-86
2023/01/05 11:03:13;;;;;;;;;;;11.10;87.00;;;;;;5083242;28;20396;-86
2023/01/05 11:05:44;;;;;;;;;;;11.20;86.80;;;;;;5054320;28;19917;-85
2023/01/05 11:08:14;;;;;;;;;;;11.20;87.10;;;;;;5044649;28;19913;-86
2023/01/05 11:10:51;;;;;;;;;;;11.30;86.50;;;;;;5061130;28;19998;-88
2023/01/05 11:13:16;;;;;;;;;;;11.30;86.50;;;;;;5073541;28;20364;-87
2023/01/05 11:15:44;;;;;;;;;;;11.20;85.80;;;;;;5055885;28;19992;-87
2023/01/05 11:18:21;;;;;;;;;;;11.30;86.00;;;;;;5080431;28;20077;-87
2023/01/05 11:21:06;;;;;;;;;;;11.30;85.80;;;;;;5056298;28;19920;-87
2023/01/05 11:23:36;;;;;;;;;;;11.30;85.80;;;;;;5082991;28;20446;-87
2023/01/05 11:26:31;;;;;;;;;;;11.30;85.30;;;;;;5082704;28;20351;-87
2023/01/05 11:29:08;;;;;;;;;;;11.20;85.50;;;;;;5038446;28;19912;-86
2023/01/05 11:31:53;;;;;;;;;;;11.30;85.50;;;;;;5075004;28;19936;-87
2023/01/05 11:34:34;;;;;;;;;;;11.20;85.80;;;;;;5050927;28;19913;-87
2023/01/05 11:37:01;;;;;;;;;;;11.10;85.20;;;;;;5057469;28;20336;-86
2023/01/05 11:39:28;;;;;;;;;;;11.20;85.50;;;;;;5094658;28;19911;-85
2023/01/05 11:42:11;;;;;;;;;;;11.30;85.70;;;;;;5077140;28;20032;-88
2023/01/05 11:44:37;;;;;;;;;;;11.40;85.00;;;;;;5084333;28;19963;-86
2023/01/05 11:47:04;;;;;;;;;;;11.40;84.50;;;;;;5063673;28;19999;-86
2023/01/05 11:49:29;;;;;;;;;;;11.30;85.20;;;;;;5059757;28;19932;-87
2023/01/05 11:51:55;;;;;;;;;;;11.40;84.60;;;;;;5062011;28;19919;-84
2023/01/05 11:54:37;;;;;;;;;;;11.40;84.50;;;;;;5059714;28;19920;-85
2023/01/05 11:57:21;;;;;;;;;;;11.40;84.20;;;;;;5057937;28;20011;-87
2023/01/05 11:59:49;;;;;;;;;;;11.40;84.60;;;;;;5065357;28;20072;-86
2023/01/05 12:02:41;;;;;;;;;;;11.30;84.80;;;;;;5077482;28;19912;-88
2023/01/05 12:05:30;;;;;;;;;;;11.40;83.90;;;;;;5063230;28;19917;-86
2023/01/05 12:08:00;;;;;;;;;;;11.50;84.10;;;;;;5041457;28;19976;-87
2023/01/05 12:10:35;;;;;;;;;;;11.40;84.40;;;;;;5053221;28;19921;-87
2023/01/05 12:13:24;;;;;;;;;;;11.40;83.90;;;;;;5061839;28;20015;-86
2023/01/05 12:16:05;;;;;;;;;;;11.50;84.30;;;;;;5069712;28;19916;-86
2023/01/05 12:18:49;;;;;;;;;;;11.50;84.30;;;;;;5047811;28;20415;-86
2023/01/05 12:21:26;;;;;;;;;;;11.50;84.30;;;;;;5067415;28;19923;-87
2023/01/05 12:24:00;;;;;;;;;;;11.60;83.90;;;;;;5067533;28;19919;-87
2023/01/05 12:26:36;;;;;;;;;;;11.60;83.10;;;;;;5056376;28;20366;-84
2023/01/05 12:29:02;;;;;;;;;;;11.50;83.60;;;;;;5085935;28;20527;-86
2023/01/05 12:31:46;;;;;;;;;;;11.50;83.80;;;;;;5071539;28;19917;-86
2023/01/05 12:34:18;;;;;;;;;;;11.40;83.50;;;;;;5093428;28;19919;-86
2023/01/05 12:36:58;;;;;;;;;;;11.50;83.40;;;;;;5093094;28;19916;-84
2023/01/05 12:39:34;;;;;;;;;;;11.50;83.50;;;;;;5078959;28;19913;-84
2023/01/05 12:42:05;;;;;;;;;;;11.60;82.80;;;;;;5077296;28;19984;-85
2023/01/05 12:44:52;;;;;;;;;;;11.60;82.70;;;;;;5060866;28;19943;-86
2023/01/05 12:47:17;;;;;;;;;;;11.50;82.20;;;;;;5062096;28;19947;-86
2023/01/05 12:49:48;;;;;;;;;;;11.60;82.40;;;;;;5053409;28;19917;-85
2023/01/05 12:52:17;;;;;;;;;;;11.60;83.10;;;;;;5061858;28;20306;-87
2023/01/05 12:54:52;;;;;;;;;;;11.60;82.40;;;;;;5052037;28;19923;-86
2023/01/05 12:57:40;;;;;;;;;;;11.60;82.20;;;;;;5045182;28;20452;-86
2023/01/05 13:00:14;;;;;;;;;;;11.60;82.30;;;;;;5050172;28;20051;-89
2023/01/05 13:02:43;;;;;;;;;;;11.60;82.20;;;;;;5052146;28;19973;-88
2023/01/05 13:05:22;;;;;;;;;;;11.60;82.60;;;;;;5053332;28;20321;-86
2023/01/05 13:07:53;;;;;;;;;;;11.60;82.70;;;;;;5060926;28;19955;-88
2023/01/05 13:10:19;;;;;;;;;;;11.50;82.50;;;;;;5056971;28;19979;-83
2023/01/05 13:12:46;;;;;;;;;;;11.60;82.90;;;;;;5094134;28;19916;-83
2023/01/05 13:15:12;;;;;;;;;;;11.60;82.40;;;;;;5084627;28;19912;-84
2023/01/05 13:17:40;;;;;;;;;;;11.60;82.00;;;;;;5087455;28;20429;-85
2023/01/05 13:20:24;;;;;;;;;;;11.70;82.30;;;;;;5079521;28;19916;-85
2023/01/05 13:22:52;;;;;;;;;;;11.70;82.40;;;;;;5088930;28;19974;-86
2023/01/05 13:25:19;;;;;;;;;;;11.80;82.00;;;;;;5057995;28;19923;-85
2023/01/05 13:27:45;;;;;;;;;;;11.70;81.80;;;;;;5069319;28;19931;-85
2023/01/05 13:30:30;;;;;;;;;;;11.70;81.90;;;;;;5064486;28;19995;-86
2023/01/05 13:33:15;;;;;;;;;;;11.70;81.40;;;;;;5043229;28;19925;-86
2023/01/05 13:35:44;;;;;;;;;;;11.80;80.80;;;;;;5061455;28;20316;-86
2023/01/05 13:38:26;;;;;;;;;;;11.70;80.90;;;;;;5070617;28;19913;-86
2023/01/05 13:41:09;;;;;;;;;;;11.70;81.70;;;;;;5064321;28;19920;-85
2023/01/05 13:43:34;;;;;;;;;;;11.70;81.60;;;;;;5062888;28;19912;-85
2023/01/05 13:46:14;;;;;;;;;;;11.70;80.70;;;;;;5059846;28;19920;-86
2023/01/05 13:48:40;;;;;;;;;;;11.60;81.10;;;;;;5048782;28;19913;-85
2023/01/05 13:51:24;;;;;;;;;;;11.60;80.30;;;;;;5049846;28;20011;-85
2023/01/05 13:53:54;;;;;;;;;;;11.70;79.80;;;;;;5081781;28;19999;-84
2023/01/05 13:56:24;;;;;;;;;;;11.60;80.80;;;;;;5050234;28;19928;-85
2023/01/05 13:58:50;;;;;;;;;;;11.60;80.90;;;;;;5066255;28;19923;-84
2023/01/05 14:01:47;;;;;;;;;;;;;;;;;;;;;
2023/01/05 14:07:42;;;;;;;;;;;11.50;80.40;;;;;;5071275;28;19912;-88
2023/01/05 14:10:42;;;;;;;;;;;11.50;80.30;;;;;;5056621;28;20008;-88
2023/01/05 14:13:28;;;;;;;;;;;11.40;80.80;;;;;;5007203;28;19948;-87
2023/01/05 14:15:54;;;;;;;;;;;11.50;81.20;;;;;;5058099;28;19919;-87
2023/01/05 14:18:45;;;;;;;;;;;11.40;81.80;;;;;;5061350;28;19916;-88
2023/01/05 14:21:18;;;;;;;;;;;11.40;81.80;;;;;;5038048;28;19920;-87
2023/01/05 14:27:55;;;;;;;;;;;;;;;;;;;;;
2023/01/05 14:30:43;;;;;;;;;;;11.50;81.50;;;;;;4988271;28;19920;-87
2023/01/05 14:36:35;;;;;;;;;;;11.50;82.10;;;;;;5011195;28;19921;-88
2023/01/05 14:39:50;;;;;;;;;;;;;;;;;;;;;
2023/01/05 14:42:43;;;;;;;;;;;11.40;81.60;;;;;;5018985;28;20459;-85
2023/01/05 14:49:18;;;;;;;;;;;11.30;81.20;;;;;;5022701;28;20013;-84
2023/01/05 14:55:05;;;;;;;;;;;11.30;81.60;;;;;;4987990;28;19917;-84
2023/01/05 14:57:48;;;;;;;;;;;11.30;81.60;;;;;;5060431;28;19932;-81
2023/01/05 15:00:51;;;;;;;;;;;;;;;;;;;;;
2023/01/05 15:03:31;;;;;;;;;;;;;;;;;;;;;
2023/01/05 15:09:16;;;;;;;;;;;11.30;81.60;;;;;;5073092;28;19916;-82
2023/01/05 15:11:58;;;;;;;;;;;11.30;81.70;;;;;;5088894;28;19954;-82
2023/01/05 15:14:38;;;;;;;;;;;11.30;81.80;;;;;;5084534;28;19928;-81
2023/01/05 15:17:14;;;;;;;;;;;11.30;81.50;;;;;;5085345;28;19923;-83
2023/01/05 15:19:58;;;;;;;;;;;11.30;81.50;;;;;;5112089;28;19916;-82
2023/01/05 15:22:42;;;;;;;;;;;11.10;82.30;;;;;;5071646;28;20079;-84
2023/01/05 15:25:15;;;;;;;;;;;11.00;82.40;;;;;;5064828;28;20020;-85
2023/01/05 15:27:56;;;;;;;;;;;10.90;82.90;;;;;;5064257;28;21393;-86
2023/01/05 15:30:29;;;;;;;;;;;10.90;83.20;;;;;;5072447;28;19922;-86
2023/01/05 15:33:09;;;;;;;;;;;10.80;83.00;;;;;;5065847;28;19920;-83